createdAt,value
2023-05-21T00:01:26.035Z,55.61
2023-05-21T00:03:53.894Z,55.83
2023-05-21T00:06:23.256Z,55.40
2023-05-21T00:08:50.721Z,55.37
2023-05-21T00:11:17.935Z,55.49
2023-05-21T00:13:45.321Z,55.31
2023-05-21T00:16:12.595Z,55.27
2023-05-21T00:18:39.839Z,55.44
2023-05-21T00:21:07.559Z,56.27
2023-05-21T00:23:37.698Z,56.27
2023-05-21T00:26:04.988Z,55.86
2023-05-21T00:28:32.380Z,55.63
2023-05-21T00:30:59.703Z,55.32
2023-05-21T00:33:29.021Z,55.57
2023-05-21T00:35:56.733Z,54.85
2023-05-21T00:38:24.091Z,55.17
2023-05-21T00:40:51.340Z,54.95
2023-05-21T00:43:18.527Z,54.99
2023-05-21T00:45:47.408Z,55.48
2023-05-21T00:48:14.745Z,56.43
2023-05-21T00:50:42.721Z,55.42
2023-05-21T00:53:10.989Z,55.84
2023-05-21T00:55:38.618Z,55.75
2023-05-21T00:58:06.955Z,56.51
2023-05-21T01:00:35.830Z,55.34
2023-05-21T01:03:04.451Z,55.41
2023-05-21T01:05:32.377Z,55.97
2023-05-21T01:07:59.890Z,55.49
2023-05-21T01:10:28.153Z,55.08
2023-05-21T01:12:57.594Z,54.86
2023-05-21T01:15:25.927Z,53.87
2023-05-21T01:17:54.498Z,54.28
2023-05-21T01:20:24.232Z,54.34
2023-05-21T01:22:56.037Z,53.30
2023-05-21T01:25:25.053Z,53.47
2023-05-21T01:27:52.263Z,52.70
2023-05-21T01:30:21.138Z,52.47
2023-05-21T01:32:56.882Z,52.40
2023-05-21T01:35:29.546Z,52.50
2023-05-21T01:38:11.985Z,53.21
2023-05-21T01:40:52.182Z,52.58
2023-05-21T01:43:22.628Z,53.21
2023-05-21T01:45:54.069Z,52.25
2023-05-21T01:48:23.760Z,52.47
2023-05-21T01:50:52.860Z,51.56
2023-05-21T01:53:20.917Z,52.33
2023-05-21T01:55:48.430Z,51.33
2023-05-21T01:58:15.885Z,52.33
2023-05-21T02:00:45.394Z,51.31
2023-05-21T02:03:16.466Z,51.60
2023-05-21T02:05:44.098Z,51.13
2023-05-21T02:08:12.773Z,51.43
2023-05-21T02:10:39.902Z,50.99
2023-05-21T02:13:07.166Z,51.68
2023-05-21T02:15:34.939Z,51.59
2023-05-21T02:18:02.543Z,51.74
2023-05-21T02:20:30.876Z,51.76
2023-05-21T02:22:58.128Z,51.01
2023-05-21T02:25:25.424Z,50.77
2023-05-21T02:27:53.884Z,51.12
2023-05-21T02:30:21.307Z,50.97
2023-05-21T02:32:49.784Z,50.44
2023-05-21T02:35:17.068Z,51.17
2023-05-21T02:37:44.615Z,51.09
2023-05-21T02:40:12.804Z,51.97
2023-05-21T02:42:41.377Z,51.06
2023-05-21T02:45:13.573Z,51.20
2023-05-21T02:47:43.257Z,50.67
2023-05-21T02:50:10.733Z,50.66
2023-05-21T02:52:44.755Z,51.46
2023-05-21T02:55:12.034Z,51.14
2023-05-21T02:57:39.479Z,51.51
2023-05-21T03:00:09.672Z,51.33
2023-05-21T03:02:38.998Z,51.78
2023-05-21T03:05:06.909Z,51.68
2023-05-21T03:07:34.258Z,51.83
2023-05-21T03:10:01.974Z,52.52
2023-05-21T03:12:29.175Z,52.18
2023-05-21T03:14:56.529Z,52.46
2023-05-21T03:17:23.926Z,52.17
2023-05-21T03:19:51.943Z,53.12
2023-05-21T03:22:19.995Z,52.99
2023-05-21T03:24:47.339Z,52.25
2023-05-21T03:27:15.412Z,52.62
2023-05-21T03:29:44.593Z,52.51
2023-05-21T03:32:13.658Z,52.53
2023-05-21T03:34:42.138Z,53.21
2023-05-21T03:37:09.341Z,52.30
2023-05-21T03:39:37.040Z,53.30
2023-05-21T03:42:06.196Z,52.58
2023-05-21T03:44:42.622Z,52.34
2023-05-21T03:47:29.792Z,52.55
2023-05-21T03:49:57.593Z,52.27
2023-05-21T03:52:24.849Z,53.37
2023-05-21T03:54:52.030Z,52.86
2023-05-21T03:57:19.427Z,52.25
2023-05-21T03:59:48.138Z,52.59
2023-05-21T04:02:15.904Z,52.00
2023-05-21T04:04:44.346Z,51.82
2023-05-21T04:07:14.633Z,52.05
2023-05-21T04:09:42.090Z,51.59
2023-05-21T04:12:09.289Z,51.51
2023-05-21T04:14:37.922Z,51.74
2023-05-21T04:17:05.355Z,52.79
2023-05-21T04:19:33.005Z,51.56
2023-05-21T04:22:00.941Z,51.31
2023-05-21T04:24:28.142Z,51.65
2023-05-21T04:27:13.880Z,51.31
2023-05-21T04:29:42.636Z,50.76
2023-05-21T04:32:09.995Z,51.21
2023-05-21T04:34:37.738Z,50.31
2023-05-21T04:37:04.903Z,51.04
2023-05-21T04:39:32.215Z,51.09
2023-05-21T04:41:59.387Z,51.24
2023-05-21T04:44:26.822Z,50.67
2023-05-21T04:46:54.825Z,50.90
2023-05-21T04:49:22.609Z,51.57
2023-05-21T04:51:49.825Z,51.02
2023-05-21T04:54:17.114Z,50.65
2023-05-21T04:56:44.472Z,51.21
2023-05-21T04:59:11.759Z,50.95
2023-05-21T05:01:39.208Z,50.88
2023-05-21T05:04:06.581Z,51.46
2023-05-21T05:06:33.869Z,51.03
2023-05-21T05:09:01.223Z,51.49
2023-05-21T05:11:28.520Z,52.67
2023-05-21T05:13:56.158Z,51.18
2023-05-21T05:16:25.764Z,52.82
2023-05-21T05:18:56.385Z,52.99
2023-05-21T05:21:24.048Z,51.51
2023-05-21T05:23:51.452Z,50.41
2023-05-21T05:26:22.179Z,50.54
2023-05-21T05:28:49.935Z,50.94
2023-05-21T05:31:17.222Z,51.34
2023-05-21T05:33:44.847Z,51.83
2023-05-21T05:36:12.642Z,51.41
2023-05-21T05:38:40.129Z,50.23
2023-05-21T05:41:07.402Z,51.33
2023-05-21T05:43:34.823Z,50.87
2023-05-21T05:46:02.121Z,50.56
2023-05-21T05:48:29.368Z,50.85
2023-05-21T05:50:58.080Z,50.45
2023-05-21T05:53:26.713Z,52.26
2023-05-21T05:55:54.550Z,51.53
2023-05-21T05:58:21.683Z,51.10
2023-05-21T06:00:58.464Z,51.15
2023-05-21T06:03:28.735Z,49.79
2023-05-21T06:05:57.274Z,50.61
2023-05-21T06:08:26.692Z,53.36
2023-05-21T06:10:53.879Z,51.05
2023-05-21T06:13:21.086Z,50.39
2023-05-21T06:15:48.295Z,50.15
2023-05-21T06:18:15.792Z,48.77
2023-05-21T06:20:43.079Z,49.73
2023-05-21T06:23:10.286Z,49.41
2023-05-21T06:25:37.958Z,48.51
2023-05-21T06:28:05.753Z,48.10
2023-05-21T06:30:34.240Z,49.56
2023-05-21T06:33:01.621Z,47.85
2023-05-21T06:35:28.946Z,48.21
2023-05-21T06:37:56.168Z,47.76
2023-05-21T06:40:23.362Z,46.33
2023-05-21T06:42:56.035Z,47.29
2023-05-21T06:45:41.944Z,47.02
2023-05-21T06:48:22.366Z,45.06
2023-05-21T06:50:49.667Z,45.15
2023-05-21T06:53:18.572Z,45.86
2023-05-21T06:55:46.014Z,45.69
2023-05-21T06:58:22.683Z,44.82
2023-05-21T07:00:50.077Z,45.69
2023-05-21T07:03:17.881Z,45.49
2023-05-21T07:05:45.193Z,45.21
2023-05-21T07:08:12.471Z,45.25
2023-05-21T07:10:40.034Z,44.46
2023-05-21T07:13:08.039Z,44.91
2023-05-21T07:15:35.622Z,44.87
2023-05-21T07:18:03.568Z,44.29
2023-05-21T07:20:30.881Z,44.99
2023-05-21T07:23:01.900Z,44.50
2023-05-21T07:25:29.050Z,44.88
2023-05-21T07:27:56.302Z,44.45
2023-05-21T07:30:24.187Z,45.72
2023-05-21T07:32:51.392Z,45.30
2023-05-21T07:35:20.421Z,45.19
2023-05-21T07:37:48.138Z,44.77
2023-05-21T07:40:15.447Z,44.95
2023-05-21T07:42:43.631Z,44.05
2023-05-21T07:45:12.660Z,44.66
2023-05-21T07:47:45.617Z,44.95
2023-05-21T07:50:14.373Z,44.92
2023-05-21T07:52:42.029Z,44.19
2023-05-21T07:55:10.129Z,44.36
2023-05-21T07:57:39.318Z,44.85
2023-05-21T08:00:16.328Z,44.48
2023-05-21T08:02:47.920Z,45.04
2023-05-21T08:05:19.116Z,43.53
2023-05-21T08:07:46.288Z,44.58
2023-05-21T08:10:13.569Z,43.66
2023-05-21T08:12:40.944Z,44.61
2023-05-21T08:15:09.205Z,42.95
2023-05-21T08:17:42.035Z,41.95
2023-05-21T08:20:10.386Z,41.11
2023-05-21T08:22:38.966Z,40.40
2023-05-21T08:25:07.991Z,39.66
2023-05-21T08:27:35.182Z,40.34
2023-05-21T08:30:02.532Z,40.83
2023-05-21T08:32:31.354Z,40.19
2023-05-21T08:35:00.602Z,40.04
2023-05-21T08:38:06.033Z,40.38
2023-05-21T08:40:47.875Z,39.86
2023-05-21T08:43:16.871Z,39.59
2023-05-21T08:45:54.876Z,40.11
2023-05-21T08:48:24.800Z,39.74
2023-05-21T08:50:53.962Z,38.06
2023-05-21T08:53:29.452Z,40.05
2023-05-21T08:55:57.870Z,39.72
2023-05-21T08:58:35.101Z,39.96
2023-05-21T09:01:04.661Z,40.24
2023-05-21T09:03:32.965Z,39.47
2023-05-21T09:06:00.812Z,38.65
2023-05-21T09:08:32.541Z,38.94
2023-05-21T09:11:08.931Z,39.30
2023-05-21T09:13:43.609Z,40.30
2023-05-21T09:16:17.407Z,40.41
2023-05-21T09:18:45.701Z,39.08
2023-05-21T09:21:26.532Z,39.71
2023-05-21T09:23:57.640Z,39.62
2023-05-21T09:26:25.661Z,38.55
2023-05-21T09:28:58.140Z,37.88
2023-05-21T09:31:28.225Z,36.33
2023-05-21T09:33:58.297Z,37.32
2023-05-21T09:36:27.100Z,36.48
2023-05-21T09:38:54.298Z,35.77
2023-05-21T09:41:31.999Z,35.05
2023-05-21T09:44:00.912Z,34.34
2023-05-21T09:46:37.894Z,34.24
2023-05-21T09:49:04.966Z,36.55
2023-05-21T09:51:32.964Z,35.45
2023-05-21T09:54:01.076Z,35.37
2023-05-21T09:56:32.086Z,36.06
2023-05-21T09:59:06.822Z,35.45
2023-05-21T10:01:34.759Z,36.14
2023-05-21T10:04:06.932Z,36.27
2023-05-21T10:06:40.425Z,35.80
2023-05-21T10:09:10.770Z,36.68
2023-05-21T10:11:39.727Z,33.64
2023-05-21T10:14:09.231Z,34.61
2023-05-21T10:16:37.041Z,34.72
2023-05-21T10:19:05.877Z,33.63
2023-05-21T10:21:33.470Z,35.31
2023-05-21T10:24:02.733Z,35.70
2023-05-21T10:26:30.520Z,36.32
2023-05-21T10:29:00.753Z,35.22
2023-05-21T10:31:28.472Z,33.72
2023-05-21T10:33:56.258Z,35.83
2023-05-21T10:36:31.622Z,35.06
2023-05-21T10:39:00.274Z,32.93
2023-05-21T10:41:28.109Z,32.73
2023-05-21T10:44:14.275Z,35.12
2023-05-21T10:46:57.935Z,33.52
2023-05-21T10:49:38.980Z,35.70
2023-05-21T10:52:32.733Z,33.41
2023-05-21T10:55:23.292Z,34.28
2023-05-21T10:58:00.208Z,35.07
2023-05-21T11:00:28.170Z,35.19
2023-05-21T11:02:55.554Z,35.00
2023-05-21T11:05:42.660Z,33.71
2023-05-21T11:08:22.793Z,32.92
2023-05-21T11:10:58.305Z,32.25
2023-05-21T11:13:31.399Z,32.14
2023-05-21T11:15:58.636Z,32.89
2023-05-21T11:18:38.338Z,32.54
2023-05-21T11:21:06.414Z,33.31
2023-05-21T11:24:03.288Z,34.92
2023-05-21T11:27:04.573Z,32.81
2023-05-21T11:29:42.532Z,34.80
2023-05-21T11:32:14.995Z,33.70
2023-05-21T11:34:45.735Z,33.48
2023-05-21T11:37:20.690Z,34.47
2023-05-21T11:39:49.841Z,35.13
2023-05-21T11:42:34.871Z,32.81
2023-05-21T11:45:03.882Z,32.08
2023-05-21T11:47:32.250Z,31.81
2023-05-21T11:50:04.053Z,33.01
2023-05-21T11:52:33.041Z,33.48
2023-05-21T11:55:00.414Z,32.84
2023-05-21T11:57:31.011Z,34.59
2023-05-21T11:59:59.888Z,33.11
2023-05-21T12:02:31.324Z,33.18
2023-05-21T12:05:00.421Z,32.13
2023-05-21T12:07:29.679Z,30.64
2023-05-21T12:09:57.600Z,30.14
2023-05-21T12:12:26.585Z,31.88
2023-05-21T12:14:55.626Z,30.95
2023-05-21T12:17:24.113Z,30.93
2023-05-21T12:19:53.101Z,32.54
2023-05-21T12:22:21.263Z,31.42
2023-05-21T12:24:48.779Z,30.61
2023-05-21T12:27:16.698Z,30.60
2023-05-21T12:29:45.636Z,31.36
2023-05-21T12:32:14.719Z,31.85
2023-05-21T12:34:54.346Z,32.56
2023-05-21T12:37:22.936Z,32.53
2023-05-21T12:39:51.894Z,32.87
2023-05-21T12:42:27.406Z,32.09
2023-05-21T12:44:54.616Z,33.38
2023-05-21T12:47:26.495Z,32.01
2023-05-21T12:49:58.011Z,33.30
2023-05-21T12:52:27.123Z,32.01
2023-05-21T12:54:56.634Z,30.32
2023-05-21T12:57:27.913Z,34.09
2023-05-21T12:59:59.197Z,31.80
2023-05-21T13:02:28.487Z,34.59
2023-05-21T13:05:00.378Z,32.59
2023-05-21T13:07:31.325Z,31.61
2023-05-21T13:09:59.337Z,31.91
2023-05-21T13:12:28.562Z,32.19
2023-05-21T13:15:00.830Z,31.29
2023-05-21T13:17:28.878Z,31.74
2023-05-21T13:20:18.148Z,32.29
2023-05-21T13:22:50.532Z,32.07
2023-05-21T13:25:21.212Z,32.36
2023-05-21T13:27:50.621Z,31.15
2023-05-21T13:30:18.541Z,31.54
2023-05-21T13:32:45.941Z,31.48
2023-05-21T13:35:15.095Z,31.33
2023-05-21T13:37:42.357Z,31.14
2023-05-21T13:40:11.397Z,31.19
2023-05-21T13:42:39.116Z,31.42
2023-05-21T13:45:09.650Z,30.84
2023-05-21T13:47:39.980Z,30.14
2023-05-21T13:50:09.028Z,30.16
2023-05-21T13:52:36.690Z,30.05
2023-05-21T13:55:04.487Z,30.79
2023-05-21T13:57:32.043Z,30.48
2023-05-21T13:59:59.821Z,28.59
2023-05-21T14:02:27.175Z,28.72
2023-05-21T14:04:54.371Z,29.06
2023-05-21T14:07:22.090Z,32.08
2023-05-21T14:09:49.772Z,32.17
2023-05-21T14:12:17.130Z,29.98
2023-05-21T14:14:44.420Z,28.97
2023-05-21T14:17:11.683Z,32.90
2023-05-21T14:19:38.823Z,31.51
2023-05-21T14:22:06.012Z,29.14
2023-05-21T14:24:33.222Z,28.95
2023-05-21T14:27:00.418Z,26.93
2023-05-21T14:29:27.602Z,28.77
2023-05-21T14:31:54.830Z,27.60
2023-05-21T14:34:21.973Z,28.15
2023-05-21T14:36:49.287Z,30.72
2023-05-21T14:39:17.109Z,28.28
2023-05-21T14:41:44.259Z,27.18
2023-05-21T14:44:11.385Z,28.34
2023-05-21T14:46:39.757Z,27.74
2023-05-21T14:49:06.959Z,26.48
2023-05-21T14:51:34.094Z,28.50
2023-05-21T14:54:01.294Z,27.56
2023-05-21T14:56:28.457Z,27.88
2023-05-21T14:58:56.243Z,27.72
2023-05-21T15:01:23.628Z,27.15
2023-05-21T15:03:51.093Z,27.58
2023-05-21T15:06:18.674Z,26.97
2023-05-21T15:08:45.869Z,26.16
2023-05-21T15:11:13.108Z,27.37
2023-05-21T15:13:40.366Z,26.59
2023-05-21T15:16:07.578Z,27.78
2023-05-21T15:18:34.788Z,27.38
2023-05-21T15:21:02.022Z,28.14
2023-05-21T15:23:29.300Z,27.50
2023-05-21T15:25:56.454Z,28.31
2023-05-21T15:28:23.580Z,30.39
2023-05-21T15:30:50.696Z,27.36
2023-05-21T15:33:18.045Z,27.38
2023-05-21T15:35:45.748Z,27.01
2023-05-21T15:38:13.088Z,26.99
2023-05-21T15:40:42.964Z,26.23
2023-05-21T15:43:10.194Z,25.94
2023-05-21T15:45:38.476Z,27.01
2023-05-21T15:48:06.473Z,26.78
2023-05-21T15:50:35.457Z,26.85
2023-05-21T15:53:04.294Z,25.76
2023-05-21T15:55:34.750Z,26.20
2023-05-21T15:58:03.138Z,26.21
2023-05-21T16:00:30.327Z,26.99
2023-05-21T16:02:57.536Z,26.23
2023-05-21T16:05:25.665Z,25.56
2023-05-21T16:07:52.926Z,26.65
2023-05-21T16:10:21.199Z,25.31
2023-05-21T16:12:48.402Z,25.86
2023-05-21T16:15:15.630Z,25.62
2023-05-21T16:17:42.761Z,26.34
2023-05-21T16:20:10.315Z,26.66
2023-05-21T16:22:37.537Z,27.88
2023-05-21T16:25:05.028Z,25.73
2023-05-21T16:27:32.233Z,25.78
2023-05-21T16:29:59.499Z,27.03
2023-05-21T16:32:28.372Z,25.75
2023-05-21T16:34:55.819Z,26.82
2023-05-21T16:37:23.024Z,27.26
2023-05-21T16:39:50.251Z,26.92
2023-05-21T16:42:17.403Z,27.08
2023-05-21T16:44:44.625Z,27.64
2023-05-21T16:47:11.799Z,27.93
2023-05-21T16:49:38.912Z,26.96
2023-05-21T16:52:06.215Z,27.75
2023-05-21T16:54:33.831Z,27.99
2023-05-21T16:57:01.024Z,28.02
2023-05-21T16:59:28.651Z,29.14
2023-05-21T17:01:55.876Z,29.50
2023-05-21T17:04:23.070Z,29.75
2023-05-21T17:06:50.177Z,29.88
2023-05-21T17:09:18.825Z,30.25
2023-05-21T17:11:46.308Z,29.98
2023-05-21T17:14:17.550Z,30.88
2023-05-21T17:16:50.874Z,30.79
2023-05-21T17:19:19.391Z,31.05
2023-05-21T17:21:46.516Z,31.39
2023-05-21T17:24:13.663Z,30.65
2023-05-21T17:26:40.802Z,31.13
2023-05-21T17:29:07.941Z,31.76
2023-05-21T17:31:35.158Z,32.04
2023-05-21T17:34:02.377Z,33.23
2023-05-21T17:36:29.543Z,33.80
2023-05-21T17:38:56.705Z,35.16
2023-05-21T17:41:25.343Z,36.05
2023-05-21T17:43:52.542Z,36.24
2023-05-21T17:46:19.730Z,36.59
2023-05-21T17:48:47.049Z,36.35
2023-05-21T17:51:14.301Z,38.07
2023-05-21T17:53:41.523Z,37.01
2023-05-21T17:56:11.162Z,37.67
2023-05-21T17:58:38.304Z,38.93
2023-05-21T18:01:05.605Z,37.93
2023-05-21T18:03:32.926Z,39.98
2023-05-21T18:06:00.166Z,39.34
2023-05-21T18:08:27.374Z,39.71
2023-05-21T18:10:54.518Z,38.44
2023-05-21T18:13:21.688Z,39.50
2023-05-21T18:15:48.807Z,40.58
2023-05-21T18:18:19.825Z,41.29
2023-05-21T18:20:48.130Z,40.74
2023-05-21T18:23:15.432Z,38.99
2023-05-21T18:25:42.878Z,40.71
2023-05-21T18:28:10.069Z,40.67
2023-05-21T18:30:37.389Z,40.30
2023-05-21T18:33:04.758Z,40.15
2023-05-21T18:35:32.009Z,39.24
2023-05-21T18:37:59.126Z,38.60
2023-05-21T18:40:30.488Z,38.09
2023-05-21T18:42:57.880Z,43.78
2023-05-21T18:45:25.041Z,42.43
2023-05-21T18:47:52.301Z,37.37
2023-05-21T18:50:20.374Z,37.15
2023-05-21T18:52:47.636Z,40.73
2023-05-21T18:55:14.871Z,38.91
2023-05-21T18:57:42.091Z,37.02
2023-05-21T19:00:09.797Z,37.00
2023-05-21T19:02:37.285Z,37.25
2023-05-21T19:05:04.942Z,39.16
2023-05-21T19:07:32.307Z,37.99
2023-05-21T19:10:00.281Z,37.54
2023-05-21T19:12:29.325Z,37.47
2023-05-21T19:14:56.764Z,37.99
2023-05-21T19:17:23.999Z,37.71
2023-05-21T19:19:55.673Z,38.67
2023-05-21T19:22:24.088Z,38.13
2023-05-21T19:24:51.729Z,38.11
2023-05-21T19:27:19.237Z,39.22
2023-05-21T19:29:46.399Z,40.75
2023-05-21T19:32:14.558Z,39.66
2023-05-21T19:34:42.278Z,39.50
2023-05-21T19:37:09.584Z,41.54
2023-05-21T19:39:38.241Z,40.36
2023-05-21T19:42:06.361Z,40.31
2023-05-21T19:44:33.869Z,40.81
2023-05-21T19:47:01.863Z,41.14
2023-05-21T19:49:29.037Z,40.98
2023-05-21T19:51:56.466Z,41.93
2023-05-21T19:54:24.239Z,42.59
2023-05-21T19:56:51.802Z,43.04
2023-05-21T19:59:19.020Z,42.83
2023-05-21T20:01:46.304Z,42.96
2023-05-21T20:04:13.877Z,43.51
2023-05-21T20:06:41.052Z,42.51
2023-05-21T20:09:08.751Z,43.76
2023-05-21T20:11:36.080Z,43.18
2023-05-21T20:14:04.316Z,43.37
2023-05-21T20:16:31.536Z,43.89
2023-05-21T20:19:01.517Z,43.32
2023-05-21T20:21:29.573Z,43.30
2023-05-21T20:23:56.886Z,44.09
2023-05-21T20:26:25.960Z,42.69
2023-05-21T20:28:53.374Z,44.23
2023-05-21T20:31:21.757Z,43.87
2023-05-21T20:33:50.363Z,43.43
2023-05-21T20:36:17.787Z,44.54
2023-05-21T20:38:45.567Z,43.26
2023-05-21T20:41:13.609Z,44.12
2023-05-21T20:43:40.761Z,44.06
2023-05-21T20:46:08.048Z,45.50
2023-05-21T20:48:35.508Z,43.83
2023-05-21T20:51:04.407Z,43.52
2023-05-21T20:53:31.903Z,44.40
2023-05-21T20:56:01.382Z,43.68
2023-05-21T20:58:28.733Z,43.80
2023-05-21T21:00:55.955Z,44.88
2023-05-21T21:03:23.617Z,44.29
2023-05-21T21:05:52.761Z,43.61
2023-05-21T21:08:19.900Z,43.49
2023-05-21T21:10:47.192Z,44.43
2023-05-21T21:13:14.702Z,44.39
2023-05-21T21:15:43.679Z,45.12
2023-05-21T21:18:12.399Z,44.32
2023-05-21T21:20:41.264Z,43.62
2023-05-21T21:23:08.950Z,44.98
2023-05-21T21:25:36.378Z,43.16
2023-05-21T21:28:03.649Z,43.35
2023-05-21T21:30:31.028Z,42.88
2023-05-21T21:32:58.239Z,42.96
2023-05-21T21:35:25.572Z,42.92
2023-05-21T21:37:52.833Z,44.19
2023-05-21T21:40:19.986Z,43.19
2023-05-21T21:42:47.246Z,44.77
2023-05-21T21:45:14.426Z,42.74
2023-05-21T21:47:41.579Z,42.88
2023-05-21T21:50:09.254Z,42.27
2023-05-21T21:52:40.074Z,44.60
2023-05-21T21:55:09.705Z,43.09
2023-05-21T21:57:38.788Z,43.19
2023-05-21T22:00:11.536Z,43.15
2023-05-21T22:02:40.112Z,42.61
2023-05-21T22:05:08.665Z,43.16
2023-05-21T22:07:38.626Z,42.77
2023-05-21T22:10:06.399Z,44.08
2023-05-21T22:12:33.997Z,45.09
2023-05-21T22:15:05.639Z,43.71
2023-05-21T22:17:33.021Z,45.37
2023-05-21T22:20:01.013Z,45.21
2023-05-21T22:22:28.197Z,45.44
2023-05-21T22:24:55.425Z,44.14
2023-05-21T22:27:22.576Z,44.05
2023-05-21T22:29:49.898Z,44.24
2023-05-21T22:32:17.172Z,43.91
2023-05-21T22:34:44.425Z,43.97
2023-05-21T22:37:12.197Z,44.01
2023-05-21T22:39:39.373Z,42.96
2023-05-21T22:42:06.624Z,45.80
2023-05-21T22:44:33.807Z,44.16
2023-05-21T22:47:01.220Z,44.50
2023-05-21T22:49:30.272Z,44.47
2023-05-21T22:52:04.953Z,45.04
2023-05-21T22:54:32.856Z,43.89
2023-05-21T22:57:01.392Z,45.10
2023-05-21T22:59:29.023Z,44.54
2023-05-21T23:01:56.207Z,43.86
2023-05-21T23:04:35.716Z,45.23
2023-05-21T23:07:07.528Z,46.27
2023-05-21T23:09:34.661Z,45.69
2023-05-21T23:12:02.119Z,45.04
2023-05-21T23:14:29.260Z,44.80
2023-05-21T23:17:01.627Z,45.72
2023-05-21T23:19:29.342Z,46.03
2023-05-21T23:21:56.914Z,45.43
2023-05-21T23:24:24.091Z,46.59
2023-05-21T23:26:52.080Z,44.91
2023-05-21T23:29:19.235Z,44.75
2023-05-21T23:31:46.740Z,45.48
2023-05-21T23:34:14.146Z,46.00
2023-05-21T23:36:41.365Z,45.95
2023-05-21T23:39:09.248Z,45.03
2023-05-21T23:41:37.341Z,45.44
2023-05-21T23:44:04.570Z,46.04
2023-05-21T23:46:31.845Z,46.54
2023-05-21T23:48:58.982Z,45.88
2023-05-21T23:51:26.300Z,45.37
2023-05-21T23:53:54.013Z,45.40
2023-05-21T23:56:21.229Z,46.28
2023-05-21T23:58:48.441Z,46.39
